Time;durP1;ratioP1;P1;durP2;ratioP2;P2;SDS_P1;SDS_P2;PMS_P1;PMS_P2;Temp;Humidity;BMP_temperature;BMP_pressure;BME280_temperature;BME280_humidity;BME280_pressure;Samples;Min_cycle;Max_cycle;Signal;HPM_P1;HPM_P2
2023/04/24 00:02:44;;;;;;;;;;;;;;;;;;;;;
2023/04/24 00:09:49;;;;;;;;;;;;;;;;;;;;;
2023/04/24 00:31:54;;;;;;;;;;;;;;;11.05;57.67;97557.32;103760;1322;544841;-89
2023/04/24 00:42:14;;;;;;;;;;;;;;;10.85;57.89;97547.96;103588;1309;124725;-85
2023/04/24 00:49:42;;;;;;;;;;;;;;;10.69;59.55;97547.38;103655;1299;544737;-90
2023/04/24 00:53:09;;;;;;;;;;;;;;;10.57;59.35;97542.50;105753;1304;123251;-86
2023/04/24 00:56:35;;;;;;;;;;;;;;;10.51;59.26;97538.57;105155;1311;22563;-86
2023/04/24 01:00:05;;;;;;;;;;;;;;;10.46;59.22;97535.92;104135;1301;123974;-88
2023/04/24 01:03:30;;;;;;;;;;;;;;;10.37;60.72;97535.95;98448;1324;7190413;-87
2023/04/24 01:10:57;;;;;;;;;;;;;;;10.10;61.93;97530.69;104019;1302;545318;-87
2023/04/24 01:17:53;;;;;;;;;;;;;;;9.97;61.44;97523.11;104198;1317;123298;-89
2023/04/24 01:32:15;;;;;;;;;;;;;;;9.96;60.95;97518.05;103804;1322;544827;-89
2023/04/24 01:35:43;;;;;;;;;;;;;;;9.92;61.77;97514.88;106493;1298;123195;-86
2023/04/24 01:46:02;;;;;;;;;;;;;;;9.87;61.50;97505.61;99540;1326;5451599;-86
2023/04/24 01:49:29;;;;;;;;;;;;;;;9.84;61.64;97502.50;103513;1323;24276;-89
2023/04/24 02:07:18;;;;;;;;;;;;;;;9.64;62.93;97477.04;103257;1311;124016;-84
2023/04/24 02:14:46;;;;;;;;;;;;;;;9.57;62.71;97475.92;103749;1302;545198;-89
2023/04/24 02:18:13;;;;;;;;;;;;;;;9.53;63.37;97468.77;106039;1297;123131;-84
2023/04/24 02:21:40;;;;;;;;;;;;;;;9.47;63.63;97468.35;105181;1307;22556;-89
2023/04/24 02:32:36;;;;;;;;;;;;;;;9.31;64.28;97458.20;103886;1302;548382;-85
2023/04/24 02:36:02;;;;;;;;;;;;;;;9.26;64.14;97457.99;106453;1304;122938;-90
2023/04/24 02:39:28;;;;;;;;;;;;;;;9.24;64.24;97453.31;104690;1313;22557;-89
2023/04/24 02:42:54;;;;;;;;;;;;;;;9.17;64.85;97448.16;104650;1293;122531;-87
2023/04/24 02:46:21;;;;;;;;;;;;;;;9.10;64.95;97446.74;100384;1318;5490624;-89
2023/04/24 02:53:49;;;;;;;;;;;;;;;9.05;64.12;97437.80;103695;1299;546909;-87
2023/04/24 03:00:43;;;;;;;;;;;;;;;9.00;64.28;97437.83;105244;1308;123610;-86
2023/04/24 03:03:46;;;;;;;;;;;;;;;8.99;64.32;97442.14;104514;1295;22801;-86
2023/04/24 03:07:38;;;;;;;;;;;;;;;8.97;64.42;97442.35;100456;1316;5448169;-90
2023/04/24 03:22:00;;;;;;;;;;;;;;;8.91;64.65;97438.80;103740;1303;546940;-88
2023/04/24 03:28:54;;;;;;;;;;;;;;;8.86;64.51;97438.86;104439;1317;22563;-84
2023/04/24 03:31:56;;;;;;;;;;;;;;;8.85;64.24;97434.50;104682;1300;22570;-88
2023/04/24 03:35:33;;;;;;;;;;;;;;;;;;;;;
2023/04/24 03:57:11;;;;;;;;;;;;;;;8.88;65.04;97437.73;104233;1319;22613;-89
2023/04/24 04:00:14;;;;;;;;;;;;;;;8.88;65.65;97434.69;104070;1311;122733;-87
2023/04/24 04:11:35;;;;;;;;;;;;;;;8.91;65.85;97433.63;103663;1304;545035;-86
2023/04/24 04:15:02;;;;;;;;;;;;;;;8.92;65.62;97434.06;105153;1307;24425;-85
2023/04/24 04:18:29;;;;;;;;;;;;;;;8.96;65.55;97436.70;104820;1311;123182;-85
2023/04/24 04:25:24;;;;;;;;;;;;;;;9.07;64.76;97433.69;100187;1318;5446948;-88
2023/04/24 04:31:42;;;;;;;;;;;;;;;;;;;;;
2023/04/24 04:39:16;;;;;;;;;;;;;;;9.34;64.82;97424.25;103957;1301;546906;-87
2023/04/24 04:43:11;;;;;;;;;;;;;;;9.38;64.56;97422.27;105818;1299;123501;-90
2023/04/24 04:50:24;;;;;;;;;;;;;;;9.46;65.95;97425.46;104780;1288;22595;-86
2023/04/24 05:07:26;;;;;;;;;;;;;;;9.83;64.42;97426.56;106719;1294;123575;-84
2023/04/24 05:11:05;;;;;;;;;;;;;;;;;;;;;
2023/04/24 05:14:48;;;;;;;;;;;;;;;10.01;63.97;97426.98;105834;1290;22534;-87
2023/04/24 05:18:16;;;;;;;;;;;;;;;10.10;63.89;97428.46;101496;1296;5463413;-89
2023/04/24 05:24:46;;;;;;;;;;;;;;;10.31;63.40;97426.52;104612;1292;123242;-86
2023/04/24 05:28:54;;;;;;;;;;;;;;;10.43;62.75;97422.31;104691;1304;22655;-86
2023/04/24 05:32:20;;;;;;;;;;;;;;;10.54;62.48;97419.56;104057;1311;124707;-87
2023/04/24 05:35:47;;;;;;;;;;;;;;;10.67;63.03;97417.66;103785;1306;23368;-89
2023/04/24 05:39:13;;;;;;;;;;;;;;;10.79;64.10;97420.98;103282;1323;22631;-86
2023/04/24 05:53:35;;;;;;;;;;;;;;;11.28;60.96;97413.82;103798;1317;22585;-87
2023/04/24 05:57:07;;;;;;;;;;;;;;;11.40;60.58;97410.47;103170;1314;25520;-86
2023/04/24 06:04:33;;;;;;;;;;;;;;;11.70;59.67;97408.19;103917;1304;559726;-86
2023/04/24 06:08:01;;;;;;;;;;;;;;;11.83;59.74;97404.45;105544;1300;123228;-85
2023/04/24 06:11:29;;;;;;;;;;;;;;;11.97;59.61;97399.60;104966;1307;22534;-86
2023/04/24 06:14:32;;;;;;;;;;;;;;;12.10;59.98;97395.73;104784;1308;22855;-85
2023/04/24 06:24:51;;;;;;;;;;;;;;;12.52;57.99;97399.89;103808;1308;123893;-85
2023/04/24 06:32:44;;;;;;;;;;;;;;;12.82;57.11;97389.29;103811;1319;566679;-88
2023/04/24 06:36:14;;;;;;;;;;;;;;;12.94;57.04;97385.90;105470;1299;22542;-86
2023/04/24 06:39:40;;;;;;;;;;;;;;;13.06;57.26;97380.17;104843;1305;22551;-89
2023/04/24 06:43:09;;;;;;;;;;;;;;;13.20;56.68;97378.66;104403;1306;122998;-87
2023/04/24 06:46:44;;;;;;;;;;;;;;;13.36;57.01;97374.05;100511;1317;5518668;-89
2023/04/24 06:50:11;;;;;;;;;;;;;;;13.49;55.93;97370.02;103908;1323;123572;-87
2023/04/24 06:53:37;;;;;;;;;;;;;;;13.60;55.87;97367.27;103137;1316;23387;-90
2023/04/24 06:56:36;;;;;;;;;;;;;;;;;;;;;
2023/04/24 07:00:08;;;;;;;;;;;;;;;;;;;;;
2023/04/24 07:03:47;;;;;;;;;;;;;;;13.91;54.87;97364.04;102235;1333;22757;-88
2023/04/24 07:10:55;;;;;;;;;;;;;;;14.13;53.89;97360.09;103841;1320;544452;-91
2023/04/24 07:14:25;;;;;;;;;;;;;;;14.25;53.31;97357.78;105741;1300;123529;-91
2023/04/24 07:17:52;;;;;;;;;;;;;;;14.37;53.39;97353.60;104931;1310;22578;-88
2023/04/24 07:20:51;;;;;;;;;;;;;;;;;;;;;
2023/04/24 07:24:20;;;;;;;;;;;;;;;;;;;;;
2023/04/24 07:27:48;;;;;;;;;;;;;;;14.82;54.02;97344.21;103749;1323;22618;-87
2023/04/24 07:31:37;;;;;;;;;;;;;;;14.99;53.22;97343.20;103496;1323;124864;-86
2023/04/24 07:35:03;;;;;;;;;;;;;;;15.15;52.28;97342.75;103027;1325;22682;-87
2023/04/24 07:38:30;;;;;;;;;;;;;;;15.33;51.81;97337.90;102747;1335;124817;-86
2023/04/24 07:41:41;;;;;;;;;;;;;;;15.52;50.54;97339.30;102659;1313;22697;-91
2023/04/24 08:06:33;;;;;;;;;;;;;;;17.05;45.51;97317.41;104034;1321;22572;-87
2023/04/24 08:09:59;;;;;;;;;;;;;;;17.28;44.31;97312.79;103700;1308;26533;-87
2023/04/24 08:12:53;;;;;;;;;;;;;;;;;;;;;
2023/04/24 08:20:37;;;;;;;;;;;;;;;17.98;43.70;97305.44;103589;1317;546030;-91
2023/04/24 08:24:07;;;;;;;;;;;;;;;18.21;42.50;97304.27;106588;1293;22642;-86
2023/04/24 08:27:00;;;;;;;;;;;;;;;;;;;;;
2023/04/24 08:30:54;;;;;;;;;;;;;;;18.69;40.75;97297.04;105894;1284;24595;-87
2023/04/24 08:37:34;;;;;;;;;;;;;;;19.20;39.02;97294.52;105502;1296;123408;-86
2023/04/24 08:40:34;;;;;;;;;;;;;;;;;;;;;
2023/04/24 08:44:23;;;;;;;;;;;;;;;;;;;;;
2023/04/24 08:48:06;;;;;;;;;;;;;;;19.69;38.52;97287.70;105318;1307;22657;-86
2023/04/24 08:54:25;;;;;;;;;;;;;;;;;;;;;
2023/04/24 08:57:43;;;;;;;;;;;;;;;;;;;;;
2023/04/24 09:04:53;;;;;;;;;;;;;;;20.32;36.66;97276.77;103917;1319;22590;-88
2023/04/24 09:08:05;;;;;;;;;;;;;;;;;;;;;
2023/04/24 09:11:08;;;;;;;;;;;;;;;;;;;;;
2023/04/24 09:14:59;;;;;;;;;;;;;;;20.58;34.97;97268.79;104218;1314;123252;-86
2023/04/24 09:18:25;;;;;;;;;;;;;;;20.67;34.74;97265.11;104046;1319;22639;-92
2023/04/24 09:21:34;;;;;;;;;;;;;;;;;;;;;
2023/04/24 09:25:17;;;;;;;;;;;;;;;21.00;34.06;97255.25;103498;1325;123627;-89
2023/04/24 09:28:14;;;;;;;;;;;;;;;;;;;;;
2023/04/24 09:31:47;;;;;;;;;;;;;;;;;;;;;
2023/04/24 09:35:00;;;;;;;;;;;;;;;;;;;;;
2023/04/24 09:38:26;;;;;;;;;;;;;;;;;;;;;
2023/04/24 09:42:07;;;;;;;;;;;;;;;21.88;33.53;97235.23;103105;1313;25140;-88
2023/04/24 09:45:02;;;;;;;;;;;;;;;;;;;;;
2023/04/24 09:52:46;;;;;;;;;;;;;;;22.46;31.84;97225.32;103952;1306;544865;-86
2023/04/24 09:56:06;;;;;;;;;;;;;;;22.59;30.65;97225.74;105834;1294;123698;-87
2023/04/24 09:59:33;;;;;;;;;;;;;;;22.67;30.08;97221.98;106191;1296;22639;-88
2023/04/24 10:09:44;;;;;;;;;;;;;;;;;;;;;
2023/04/24 10:13:07;;;;;;;;;;;;;;;23.13;29.28;97208.23;104882;1307;123262;-90
2023/04/24 10:16:46;;;;;;;;;;;;;;;;;;;;;
2023/04/24 10:19:48;;;;;;;;;;;;;;;;;;;;;
2023/04/24 10:23:42;;;;;;;;;;;;;;;23.35;28.65;97203.59;104980;1312;22574;-92
2023/04/24 10:26:28;;;;;;;;;;;;;;;;;;;;;
2023/04/24 10:29:54;;;;;;;;;;;;;;;;;;;;;
2023/04/24 10:33:05;;;;;;;;;;;;;;;;;;;;;
2023/04/24 10:36:57;;;;;;;;;;;;;;;23.56;26.02;97198.52;104629;1299;22789;-88
2023/04/24 10:39:56;;;;;;;;;;;;;;;;;;;;;
2023/04/24 10:43:50;;;;;;;;;;;;;;;23.54;25.51;97194.67;104267;1320;22626;-87
2023/04/24 10:47:02;;;;;;;;;;;;;;;23.46;25.06;97199.33;104388;1301;124945;-89
2023/04/24 10:50:00;;;;;;;;;;;;;;;;;;;;;
2023/04/24 10:53:09;;;;;;;;;;;;;;;;;;;;;
2023/04/24 10:57:11;;;;;;;;;;;;;;;23.44;25.11;97186.03;105719;1274;22517;-89
2023/04/24 11:00:39;;;;;;;;;;;;;;;23.45;25.30;97188.50;106309;1297;24514;-93
2023/04/24 11:03:54;;;;;;;;;;;;;;;;;;;;;
2023/04/24 11:07:38;;;;;;;;;;;;;;;23.41;25.36;97182.23;105885;1279;22526;-86
2023/04/24 11:14:10;;;;;;;;;;;;;;;;;;;;;
2023/04/24 11:17:41;;;;;;;;;;;;;;;23.56;27.38;97181.92;104766;1301;123739;-87
2023/04/24 11:21:12;;;;;;;;;;;;;;;;;;;;;
2023/04/24 11:24:22;;;;;;;;;;;;;;;23.70;26.60;97177.33;104672;1310;22562;-86
2023/04/24 11:27:45;;;;;;;;;;;;;;;;;;;;;
2023/04/24 11:31:02;;;;;;;;;;;;;;;;;;;;;
2023/04/24 11:34:48;;;;;;;;;;;;;;;24.13;26.72;97166.81;103517;1323;123790;-87
2023/04/24 11:37:52;;;;;;;;;;;;;;;;;;;;;
2023/04/24 11:40:54;;;;;;;;;;;;;;;;;;;;;
2023/04/24 11:44:47;;;;;;;;;;;;;;;24.49;25.34;97162.84;104348;1319;23015;-86
2023/04/24 11:47:58;;;;;;;;;;;;;;;;;;;;;
2023/04/24 11:51:32;;;;;;;;;;;;;;;24.45;25.56;97150.91;104671;1308;24021;-87
2023/04/24 11:54:29;;;;;;;;;;;;;;;;;;;;;
2023/04/24 11:58:13;;;;;;;;;;;;;;;24.65;27.64;97142.88;104418;1300;123635;-85
2023/04/24 12:01:34;;;;;;;;;;;;;;;24.76;27.14;97136.16;104569;1315;22559;-88
2023/04/24 12:05:01;;;;;;;;;;;;;;;25.01;27.21;97130.27;104229;1314;123510;-90
2023/04/24 12:08:27;;;;;;;;;;;;;;;25.09;26.37;97132.22;104078;1303;22593;-87
2023/04/24 12:11:07;;;;;;;;;;;;;;;;;;;;;
2023/04/24 12:14:44;;;;;;;;;;;;;;;;;;;;;
2023/04/24 12:21:46;;;;;;;;;;;;;;;25.00;26.91;97118.73;104563;1314;547052;-87
2023/04/24 12:25:05;;;;;;;;;;;;;;;24.75;26.37;97118.16;108043;1292;25409;-90
2023/04/24 12:28:12;;;;;;;;;;;;;;;24.77;26.64;97119.14;106845;1294;124134;-89
2023/04/24 12:31:32;;;;;;;;;;;;;;;24.83;26.83;97110.17;106998;1267;22514;-86
2023/04/24 12:35:25;;;;;;;;;;;;;;;24.78;26.80;97107.56;103164;1287;5429947;-87
2023/04/24 12:38:13;;;;;;;;;;;;;;;24.61;26.63;97103.67;106715;1292;22524;-86
2023/04/24 12:42:08;;;;;;;;;;;;;;;24.44;26.71;97101.35;106237;1281;123711;-86
2023/04/24 12:45:29;;;;;;;;;;;;;;;24.17;27.34;97105.08;105953;1293;22565;-90
2023/04/24 12:48:21;;;;;;;;;;;;;;;23.91;28.32;97097.16;106295;1301;22514;-90
2023/04/24 12:52:01;;;;;;;;;;;;;;;;;;;;;
2023/04/24 12:55:18;;;;;;;;;;;;;;;23.35;30.07;97096.37;105542;1304;22579;-86
2023/04/24 12:58:51;;;;;;;;;;;;;;;22.85;31.73;97117.05;105211;1305;124505;-87
2023/04/24 13:02:17;;;;;;;;;;;;;;;22.33;33.64;97119.45;104819;1305;26486;-86
2023/04/24 13:05:49;;;;;;;;;;;;;;;21.93;34.45;97127.42;104454;1314;123862;-87
2023/04/24 13:09:16;;;;;;;;;;;;;;;21.47;35.31;97126.17;104465;1314;25617;-87
2023/04/24 13:12:35;;;;;;;;;;;;;;;21.09;36.09;97132.27;104943;1301;123202;-87
2023/04/24 13:15:36;;;;;;;;;;;;;;;;;;;;;
2023/04/24 13:19:27;;;;;;;;;;;;;;;20.66;37.11;97134.90;103979;1320;25335;-88
2023/04/24 13:22:21;;;;;;;;;;;;;;;;;;;;;
2023/04/24 13:25:33;;;;;;;;;;;;;;;;;;;;;
2023/04/24 13:28:39;;;;;;;;;;;;;;;20.09;39.56;97136.05;102830;1334;124478;-87
2023/04/24 13:35:05;;;;;;;;;;;;;;;;;;;;;
2023/04/24 13:38:43;;;;;;;;;;;;;;;;;;;;;
2023/04/24 13:42:08;;;;;;;;;;;;;;;;;;;;;
2023/04/24 13:45:41;;;;;;;;;;;;;;;19.30;41.81;97149.34;102747;1319;23064;-88
2023/04/24 13:48:46;;;;;;;;;;;;;;;;;;;;;
2023/04/24 13:52:27;;;;;;;;;;;;;;;18.89;42.44;97156.30;104056;1326;123640;-86
2023/04/24 13:55:53;;;;;;;;;;;;;;;18.67;42.23;97154.91;103020;1315;22597;-89
2023/04/24 13:58:39;;;;;;;;;;;;;;;;;;;;;
2023/04/24 14:02:20;;;;;;;;;;;;;;;18.28;42.88;97158.30;103516;1323;23359;-88
2023/04/24 14:05:07;;;;;;;;;;;;;;;18.14;43.44;97162.70;103836;1312;123431;-87
2023/04/24 14:08:28;;;;;;;;;;;;;;;;;;;;;
2023/04/24 14:11:59;;;;;;;;;;;;;;;;;;;;;
2023/04/24 14:15:16;;;;;;;;;;;;;;;;;;;;;
2023/04/24 14:19:07;;;;;;;;;;;;;;;17.66;44.98;97172.50;105711;1304;22533;-86
2023/04/24 14:21:58;;;;;;;;;;;;;;;;;;;;;
2023/04/24 14:28:37;;;;;;;;;;;;;;;;;;;;;
2023/04/24 14:32:28;;;;;;;;;;;;;;;;;;;;;
2023/04/24 14:35:54;;;;;;;;;;;;;;;17.31;46.67;97177.25;105643;1286;123494;-88
2023/04/24 14:42:20;;;;;;;;;;;;;;;;;;;;;
2023/04/24 14:46:06;;;;;;;;;;;;;;;17.16;47.48;97176.80;105691;1285;23328;-87
2023/04/24 14:49:25;;;;;;;;;;;;;;;17.14;47.55;97173.45;105131;1308;22954;-86
2023/04/24 14:52:39;;;;;;;;;;;;;;;;;;;;;
2023/04/24 14:56:20;;;;;;;;;;;;;;;17.10;48.11;97175.30;105402;1288;25302;-86
2023/04/24 14:59:31;;;;;;;;;;;;;;;;;;;;;
2023/04/24 15:02:44;;;;;;;;;;;;;;;;;;;;;
2023/04/24 15:06:06;;;;;;;;;;;;;;;;;;;;;
2023/04/24 15:09:22;;;;;;;;;;;;;;;;;;;;;
2023/04/24 15:12:44;;;;;;;;;;;;;;;;;;;;;
2023/04/24 15:20:01;;;;;;;;;;;;;;;17.08;47.83;97180.48;105165;1307;22667;-86
2023/04/24 15:23:13;;;;;;;;;;;;;;;;;;;;;
2023/04/24 15:26:27;;;;;;;;;;;;;;;;;;;;;
2023/04/24 15:29:54;;;;;;;;;;;;;;;;;;;;;
2023/04/24 15:33:25;;;;;;;;;;;;;;;;;;;;;
2023/04/24 15:36:52;;;;;;;;;;;;;;;;;;;;;
2023/04/24 15:40:06;;;;;;;;;;;;;;;;;;;;;
2023/04/24 15:43:57;;;;;;;;;;;;;;;17.18;48.52;97183.85;104038;1313;25815;-89
2023/04/24 15:46:36;;;;;;;;;;;;;;;17.19;48.74;97184.24;104459;1301;123972;-86
2023/04/24 15:50:28;;;;;;;;;;;;;;;17.21;48.57;97181.40;103679;1319;25276;-87
2023/04/24 15:53:20;;;;;;;;;;;;;;;;;;;;;
2023/04/24 15:56:51;;;;;;;;;;;;;;;;;;;;;
2023/04/24 16:00:06;;;;;;;;;;;;;;;;;;;;;
2023/04/24 16:03:31;;;;;;;;;;;;;;;17.19;49.16;97189.71;105011;1301;22577;-88
2023/04/24 16:10:37;;;;;;;;;;;;;;;17.06;49.52;97193.59;104958;1304;24215;-87
2023/04/24 16:14:04;;;;;;;;;;;;;;;16.93;50.52;97198.78;105061;1307;22559;-89
2023/04/24 16:17:23;;;;;;;;;;;;;;;16.75;51.44;97197.21;105045;1286;124027;-87
2023/04/24 16:20:37;;;;;;;;;;;;;;;16.61;52.60;97200.61;105156;1301;22661;-88
2023/04/24 16:24:03;;;;;;;;;;;;;;;16.47;52.80;97197.80;105216;1296;123518;-87
2023/04/24 16:27:06;;;;;;;;;;;;;;;16.34;52.74;97194.05;105222;1288;24284;-88
2023/04/24 16:33:50;;;;;;;;;;;;;;;;;;;;;
2023/04/24 16:37:22;;;;;;;;;;;;;;;;;;;;;
2023/04/24 16:40:37;;;;;;;;;;;;;;;;;;;;;
2023/04/24 16:44:28;;;;;;;;;;;;;;;15.78;54.98;97201.79;105238;1304;22756;-87
2023/04/24 16:51:20;;;;;;;;;;;;;;;15.53;55.59;97202.05;105079;1307;22553;-85
2023/04/24 16:54:33;;;;;;;;;;;;;;;;;;;;;
2023/04/24 16:57:49;;;;;;;;;;;;;;;15.35;56.24;97199.94;104955;1294;23884;-88
2023/04/24 17:01:41;;;;;;;;;;;;;;;15.28;56.41;97201.26;104526;1311;22591;-89
2023/04/24 17:08:28;;;;;;;;;;;;;;;15.16;56.69;97202.70;104337;1301;22665;-87
2023/04/24 17:11:39;;;;;;;;;;;;;;;;;;;;;
2023/04/24 17:14:46;;;;;;;;;;;;;;;;;;;;;
2023/04/24 17:18:12;;;;;;;;;;;;;;;;;;;;;
2023/04/24 17:21:24;;;;;;;;;;;;;;;14.86;57.61;97206.22;103841;1327;22583;-89
2023/04/24 17:24:44;;;;;;;;;;;;;;;;;;;;;
2023/04/24 17:31:23;;;;;;;;;;;;;;;;;;;;;
2023/04/24 17:35:50;;;;;;;;;;;;;;;14.52;58.84;97210.77;104197;1305;547576;-87
2023/04/24 17:42:47;;;;;;;;;;;;;;;14.30;59.47;97210.80;105491;1304;122907;-86
2023/04/24 17:45:58;;;;;;;;;;;;;;;;;;;;;
2023/04/24 17:53:06;;;;;;;;;;;;;;;14.08;60.88;97215.67;104147;1321;25309;-85
2023/04/24 17:56:32;;;;;;;;;;;;;;;14.00;61.26;97215.02;103906;1317;25373;-86
2023/04/24 18:07:27;;;;;;;;;;;;;;;13.77;62.38;97222.05;105246;1308;123758;-85
2023/04/24 18:10:53;;;;;;;;;;;;;;;13.72;62.70;97228.57;104578;1316;25459;-85
2023/04/24 18:14:19;;;;;;;;;;;;;;;13.68;62.99;97229.08;104111;1304;22610;-85
2023/04/24 18:17:46;;;;;;;;;;;;;;;13.62;63.37;97235.38;99612;1328;5467201;-84
2023/04/24 18:32:08;;;;;;;;;;;;;;;13.45;64.57;97235.63;104157;1322;23257;-85
2023/04/24 19:00:36;;;;;;;;;;;;;;;12.99;67.40;97252.89;106951;1294;123927;-86
2023/04/24 19:04:04;;;;;;;;;;;;;;;12.94;67.73;97256.05;106427;1295;22525;-85
2023/04/24 19:10:59;;;;;;;;;;;;;;;12.82;68.29;97260.82;101511;1302;5508077;-84
2023/04/24 19:14:06;;;;;;;;;;;;;;;;;;;;;
2023/04/24 19:21:28;;;;;;;;;;;;;;;12.68;69.01;97259.80;104324;1312;23662;-86
2023/04/24 19:24:43;;;;;;;;;;;;;;;;;;;;;
2023/04/24 19:28:11;;;;;;;;;;;;;;;;;;;;;
2023/04/24 20:00:34;;;;;;;;;;;;;;;12.41;71.07;97239.77;103820;1304;124030;-86
2023/04/24 20:04:01;;;;;;;;;;;;;;;12.40;71.05;97242.88;99739;1315;5436435;-86
2023/04/24 20:14:55;;;;;;;;;;;;;;;12.32;71.50;97240.02;103561;1315;547148;-86
2023/04/24 20:18:22;;;;;;;;;;;;;;;12.28;72.00;97239.86;106220;1289;124044;-85
2023/04/24 20:21:49;;;;;;;;;;;;;;;12.27;72.12;97237.63;105872;1300;22533;-88
2023/04/24 20:25:15;;;;;;;;;;;;;;;12.24;72.03;97241.92;105786;1284;123941;-86
2023/04/24 20:28:41;;;;;;;;;;;;;;;12.24;72.39;97242.25;101279;1299;5477721;-86
2023/04/24 20:50:01;;;;;;;;;;;;;;;12.32;72.55;97242.17;103957;1302;123855;-86
2023/04/24 20:53:25;;;;;;;;;;;;;;;12.33;73.05;97243.47;100108;1315;5532151;-86
2023/04/24 21:04:20;;;;;;;;;;;;;;;12.34;72.69;97241.27;105447;1303;22963;-84
2023/04/24 21:07:54;;;;;;;;;;;;;;;12.34;72.83;97241.02;104701;1309;124416;-86
2023/04/24 21:22:10;;;;;;;;;;;;;;;12.31;73.18;97244.04;105471;1298;25367;-86
2023/04/24 21:32:44;;;;;;;;;;;;;;;;;;;;;
2023/04/24 21:39:39;;;;;;;;;;;;;;;;;;;;;
2023/04/24 21:43:23;;;;;;;;;;;;;;;12.29;73.20;97239.42;105580;1297;123636;-85
2023/04/24 21:46:51;;;;;;;;;;;;;;;12.27;73.20;97235.49;100813;1305;5581511;-85
2023/04/24 21:50:17;;;;;;;;;;;;;;;12.26;73.33;97231.69;103879;1321;124110;-87
2023/04/24 21:53:43;;;;;;;;;;;;;;;12.25;73.53;97233.49;104089;1305;22581;-87
2023/04/24 22:07:58;;;;;;;;;;;;;;;12.21;74.56;97223.48;103797;1308;547010;-85
2023/04/24 22:11:25;;;;;;;;;;;;;;;12.17;74.91;97223.70;106057;1292;23361;-87
2023/04/24 22:14:52;;;;;;;;;;;;;;;12.16;75.11;97220.14;106109;1295;25408;-85
2023/04/24 22:32:37;;;;;;;;;;;;;;;12.05;78.63;97222.85;103920;1304;545174;-84
2023/04/24 22:35:49;;;;;;;;;;;;;;;11.98;79.29;97223.52;106568;1297;25307;-84
2023/04/24 22:39:03;;;;;;;;;;;;;;;11.91;80.47;97226.55;105867;1300;23887;-84
2023/04/24 22:42:16;;;;;;;;;;;;;;;;;;;;;
2023/04/24 22:45:58;;;;;;;;;;;;;;;11.81;82.18;97223.61;101421;1306;5476681;-84
2023/04/24 22:48:52;;;;;;;;;;;;;;;;;;;;;
2023/04/24 22:52:46;;;;;;;;;;;;;;;11.67;83.76;97222.11;104889;1292;24324;-85
2023/04/24 22:59:39;;;;;;;;;;;;;;;11.55;84.73;97215.22;104067;1321;25530;-85
2023/04/24 23:07:07;;;;;;;;;;;;;;;11.50;86.16;97212.08;103927;1304;544607;-87
2023/04/24 23:10:20;;;;;;;;;;;;;;;;;;;;;
2023/04/24 23:13:30;;;;;;;;;;;;;;;;;;;;;
2023/04/24 23:17:07;;;;;;;;;;;;;;;;;;;;;
2023/04/24 23:20:50;;;;;;;;;;;;;;;11.47;87.59;97202.21;101723;1296;5553371;-87
2023/04/24 23:24:16;;;;;;;;;;;;;;;11.49;87.64;97198.72;105039;1310;22555;-85
2023/04/24 23:27:42;;;;;;;;;;;;;;;11.48;87.98;97196.05;104690;1298;22598;-85
2023/04/24 23:31:08;;;;;;;;;;;;;;;11.47;88.28;97192.95;104231;1319;123977;-85
2023/04/24 23:34:22;;;;;;;;;;;;;;;;;;;;;
2023/04/24 23:37:39;;;;;;;;;;;;;;;;;;;;;
2023/04/24 23:40:53;;;;;;;;;;;;;;;;;;;;;
2023/04/24 23:45:21;;;;;;;;;;;;;;;11.43;89.11;97192.86;103709;1301;544230;-89
2023/04/24 23:48:22;;;;;;;;;;;;;;;;;;;;;
2023/04/24 23:52:15;;;;;;;;;;;;;;;11.40;89.51;97187.87;104715;1309;24413;-87
2023/04/24 23:55:41;;;;;;;;;;;;;;;11.38;89.72;97183.46;104175;1302;123684;-87
2023/04/24 23:58:52;;;;;;;;;;;;;;;;;;;;;
